Time;durP1;ratioP1;P1;durP2;ratioP2;P2;SDS_P1;SDS_P2;PMS_P1;PMS_P2;Temp;Humidity;BMP_temperature;BMP_pressure;BME280_temperature;BME280_humidity;BME280_pressure;Samples;Min_cycle;Max_cycle;Signal;HPM_P1;HPM_P2
2023/07/01 00:00:16;;;;;;;10.48;2.13;;;17.70;99.90;;;;;;5010715;28;20108;-83
2023/07/01 00:02:41;;;;;;;6.95;1.95;;;17.50;99.90;;;;;;5007488;28;20033;-83
2023/07/01 00:05:08;;;;;;;6.30;1.30;;;17.60;99.90;;;;;;5006438;28;20034;-83
2023/07/01 00:07:34;;;;;;;8.68;1.15;;;17.60;99.90;;;;;;4992120;28;20040;-84
2023/07/01 00:10:06;;;;;;;10.32;1.52;;;17.50;99.90;;;;;;4992392;28;20523;-83
2023/07/01 00:12:31;;;;;;;11.93;1.88;;;17.60;99.90;;;;;;5010953;28;20355;-83
2023/07/01 00:14:57;;;;;;;10.43;1.40;;;17.70;99.90;;;;;;4985717;28;20102;-84
2023/07/01 00:17:25;;;;;;;6.07;1.52;;;17.60;99.90;;;;;;5011672;28;20049;-84
2023/07/01 00:19:50;;;;;;;5.85;1.48;;;17.70;99.90;;;;;;5001495;28;20397;-84
2023/07/01 00:22:16;;;;;;;6.88;1.42;;;17.60;99.90;;;;;;5011572;28;20045;-83
2023/07/01 00:24:42;;;;;;;8.73;2.17;;;17.70;99.90;;;;;;4996208;28;20057;-83
2023/07/01 00:27:07;;;;;;;7.80;1.58;;;17.60;99.90;;;;;;5011858;28;20124;-83
2023/07/01 00:29:48;;;;;;;7.18;1.60;;;17.60;99.90;;;;;;5005592;28;20460;-84
2023/07/01 00:32:14;;;;;;;9.90;1.23;;;17.60;99.90;;;;;;5020961;28;20440;-84
2023/07/01 00:34:39;;;;;;;9.07;1.70;;;17.60;99.90;;;;;;4998069;28;20061;-84
2023/07/01 00:37:05;;;;;;;6.22;1.38;;;17.60;99.90;;;;;;5012302;28;20132;-83
2023/07/01 00:39:31;;;;;;;8.75;1.75;;;17.70;99.90;;;;;;5013150;28;20076;-83
2023/07/01 00:41:56;;;;;;;12.45;1.40;;;17.70;99.90;;;;;;5017728;28;20572;-85
2023/07/01 00:44:22;;;;;;;9.15;1.67;;;17.70;99.90;;;;;;4999954;28;20049;-84
2023/07/01 00:46:48;;;;;;;6.85;1.70;;;17.90;99.90;;;;;;4992621;28;20034;-83
2023/07/01 00:49:14;;;;;;;5.53;1.25;;;17.70;99.90;;;;;;5006368;28;20038;-83
2023/07/01 00:51:39;;;;;;;5.05;1.20;;;17.70;99.90;;;;;;5017961;28;20468;-84
2023/07/01 00:54:06;;;;;;;10.75;2.28;;;17.70;99.90;;;;;;5013951;28;20480;-84
2023/07/01 00:56:31;;;;;;;11.68;2.53;;;17.70;99.90;;;;;;5013666;28;20078;-85
2023/07/01 00:58:57;;;;;;;7.13;1.88;;;17.70;99.90;;;;;;5010176;28;20042;-84
2023/07/01 01:01:29;;;;;;;7.78;1.70;;;17.70;99.90;;;;;;5014732;28;20095;-83
2023/07/01 01:04:07;;;;;;;8.10;1.42;;;17.70;99.90;;;;;;5012256;28;20038;-84
2023/07/01 01:06:49;;;;;;;6.97;1.25;;;17.70;99.90;;;;;;5005696;28;20038;-83
2023/07/01 01:09:43;;;;;;;4.13;1.40;;;17.70;99.90;;;;;;5012418;28;20073;-84
2023/07/01 01:12:12;;;;;;;7.43;1.45;;;17.70;99.90;;;;;;4991163;28;20622;-83
2023/07/01 01:14:38;;;;;;;8.63;1.63;;;17.70;99.90;;;;;;5017187;28;20042;-82
2023/07/01 01:17:12;;;;;;;17.88;2.35;;;17.60;99.90;;;;;;5013028;28;20046;-84
2023/07/01 01:19:43;;;;;;;11.80;1.58;;;17.70;99.90;;;;;;4991369;28;20037;-83
2023/07/01 01:22:24;;;;;;;9.50;1.58;;;17.60;99.90;;;;;;4998341;28;20038;-83
2023/07/01 01:24:57;;;;;;;9.93;1.88;;;17.70;99.90;;;;;;5014525;28;20045;-84
2023/07/01 01:27:25;;;;;;;7.55;1.88;;;18.20;99.90;;;;;;4992645;28;20511;-84
2023/07/01 01:29:51;;;;;;;7.55;1.50;;;17.60;99.90;;;;;;5006763;28;20041;-84
2023/07/01 01:32:17;;;;;;;9.80;2.47;;;17.70;99.90;;;;;;5010007;28;20038;-84
2023/07/01 01:34:43;;;;;;;7.78;1.65;;;17.70;99.90;;;;;;5007053;28;20037;-83
2023/07/01 01:37:30;;;;;;;4.65;1.50;;;17.70;99.90;;;;;;5010661;28;20037;-84
2023/07/01 01:40:09;;;;;;;6.90;2.00;;;17.70;99.90;;;;;;5007550;28;20056;-84
2023/07/01 01:42:37;;;;;;;8.20;1.48;;;17.70;99.90;;;;;;5011104;28;20618;-84
2023/07/01 01:45:05;;;;;;;3.58;1.50;;;17.70;99.90;;;;;;4988698;28;20453;-84
2023/07/01 01:47:37;;;;;;;11.52;2.20;;;17.60;99.90;;;;;;4991003;28;20034;-83
2023/07/01 01:50:06;;;;;;;6.65;2.08;;;17.60;99.90;;;;;;5003833;28;20136;-84
2023/07/01 01:52:32;;;;;;;13.35;1.85;;;17.60;99.90;;;;;;5008245;28;20034;-84
2023/07/01 01:54:58;;;;;;;7.15;2.55;;;17.50;99.90;;;;;;4998784;28;20042;-84
2023/07/01 01:57:24;;;;;;;11.25;2.20;;;17.40;99.90;;;;;;5009842;28;20049;-84
2023/07/01 01:59:51;;;;;;;13.40;2.63;;;17.40;99.90;;;;;;4990006;28;20377;-84
2023/07/01 02:02:16;;;;;;;20.35;3.75;;;17.40;99.90;;;;;;5013094;28;20475;-83
2023/07/01 02:04:42;;;;;;;12.52;2.15;;;17.30;99.90;;;;;;4995834;28;20044;-84
2023/07/01 02:07:08;;;;;;;11.43;2.88;;;17.30;99.90;;;;;;5004620;28;20048;-83
2023/07/01 02:09:33;;;;;;;6.97;1.63;;;17.30;99.90;;;;;;5009900;28;20057;-84
2023/07/01 02:11:59;;;;;;;7.65;1.85;;;17.30;99.90;;;;;;5009212;28;20128;-84
2023/07/01 02:14:24;;;;;;;7.10;2.38;;;17.30;99.90;;;;;;5009702;28;20030;-84
2023/07/01 02:16:50;;;;;;;9.60;2.15;;;17.30;99.90;;;;;;5015936;28;20124;-84
2023/07/01 02:19:17;;;;;;;6.78;2.00;;;17.30;99.90;;;;;;4994731;28;20038;-84
2023/07/01 02:21:42;;;;;;;2.83;1.48;;;17.30;99.90;;;;;;4991402;28;20045;-85
2023/07/01 02:24:08;;;;;;;24.85;3.72;;;17.30;99.90;;;;;;4996573;28;20400;-84
2023/07/01 02:26:33;;;;;;;14.13;2.45;;;17.30;99.90;;;;;;5013374;28;20038;-83
2023/07/01 02:28:59;;;;;;;11.57;2.30;;;17.40;99.90;;;;;;5014890;28;20129;-83
2023/07/01 02:31:25;;;;;;;8.52;2.90;;;17.40;99.90;;;;;;4999272;28;20033;-84
2023/07/01 02:33:53;;;;;;;10.90;2.20;;;17.40;99.90;;;;;;5016974;28;20396;-83
2023/07/01 02:36:19;;;;;;;15.63;2.80;;;17.40;99.90;;;;;;5019897;28;20103;-84
2023/07/01 02:38:44;;;;;;;5.85;2.00;;;17.40;99.90;;;;;;5015122;28;20500;-83
2023/07/01 02:41:10;;;;;;;10.23;2.20;;;17.40;99.90;;;;;;4992892;28;20129;-84
2023/07/01 02:43:36;;;;;;;12.45;2.80;;;17.40;99.90;;;;;;4999609;28;20116;-84
2023/07/01 02:46:01;;;;;;;4.88;2.03;;;17.40;99.90;;;;;;5016063;28;20504;-82
2023/07/01 02:48:27;;;;;;;6.47;1.90;;;17.30;99.90;;;;;;5013358;28;20042;-83
2023/07/01 02:50:52;;;;;;;7.38;1.90;;;17.40;99.90;;;;;;4994817;28;20052;-84
2023/07/01 02:53:19;;;;;;;14.20;2.25;;;17.20;99.90;;;;;;4995674;28;20034;-83
2023/07/01 02:55:46;;;;;;;8.43;2.38;;;17.20;99.90;;;;;;5013988;28;20048;-83
2023/07/01 02:58:11;;;;;;;9.20;1.98;;;17.30;99.90;;;;;;5010338;28;20049;-84
2023/07/01 03:00:37;;;;;;;9.90;2.55;;;17.30;99.90;;;;;;4999327;28;20076;-84
2023/07/01 03:03:08;;;;;;;9.23;2.70;;;17.10;99.90;;;;;;4997387;28;20038;-84
2023/07/01 03:05:35;;;;;;;6.63;2.10;;;17.10;99.90;;;;;;5011827;28;20053;-84
2023/07/01 03:08:01;;;;;;;7.70;2.00;;;17.10;99.90;;;;;;5007902;28;20071;-84
2023/07/01 03:10:27;;;;;;;5.88;2.20;;;17.00;99.90;;;;;;5003775;28;20072;-84
2023/07/01 03:12:53;;;;;;;7.82;2.80;;;16.90;99.90;;;;;;4995822;28;20077;-84
2023/07/01 03:15:19;;;;;;;7.10;2.67;;;16.80;99.90;;;;;;5008507;28;20038;-83
2023/07/01 03:17:48;;;;;;;7.53;2.53;;;16.80;99.90;;;;;;5013774;28;20044;-84
2023/07/01 03:20:22;;;;;;;5.15;2.10;;;16.70;99.90;;;;;;5002395;28;20049;-84
2023/07/01 03:22:57;;;;;;;7.30;2.88;;;16.60;99.90;;;;;;5006904;28;20494;-84
2023/07/01 03:25:26;;;;;;;8.77;2.42;;;16.60;99.90;;;;;;5010697;28;20045;-84
2023/07/01 03:27:52;;;;;;;7.90;2.58;;;16.50;99.90;;;;;;5017182;28;20116;-84
2023/07/01 03:30:19;;;;;;;9.02;2.47;;;16.50;99.90;;;;;;5016907;28;20732;-84
2023/07/01 03:32:48;;;;;;;16.73;3.28;;;16.40;99.90;;;;;;5001047;28;20087;-84
2023/07/01 03:35:15;;;;;;;4.35;2.40;;;16.40;99.90;;;;;;5014020;28;20488;-84
2023/07/01 03:37:42;;;;;;;18.30;3.20;;;16.30;99.90;;;;;;4996205;28;20037;-84
2023/07/01 03:40:12;;;;;;;9.05;2.13;;;16.30;99.90;;;;;;5016814;28;20404;-84
2023/07/01 03:42:39;;;;;;;7.47;2.35;;;16.30;99.90;;;;;;5013609;28;20235;-85
2023/07/01 03:45:07;;;;;;;5.30;2.67;;;16.20;99.90;;;;;;4998054;28;20045;-84
2023/07/01 03:47:33;;;;;;;2.58;2.00;;;16.10;99.90;;;;;;5010576;28;20053;-85
2023/07/01 03:49:58;;;;;;;8.38;2.45;;;16.10;99.90;;;;;;4996459;28;20743;-84
2023/07/01 03:52:24;;;;;;;3.10;1.88;;;16.10;99.90;;;;;;5008920;28;20157;-83
2023/07/01 03:54:49;;;;;;;4.65;2.20;;;16.10;99.90;;;;;;5014237;28;20049;-83
2023/07/01 03:57:15;;;;;;;8.57;2.90;;;16.10;99.90;;;;;;4992048;28;20065;-84
2023/07/01 03:59:41;;;;;;;8.45;2.60;;;16.00;99.90;;;;;;5014820;28;20038;-84
2023/07/01 04:02:06;;;;;;;6.90;2.28;;;16.00;99.90;;;;;;5011922;28;20463;-84
2023/07/01 04:04:32;;;;;;;7.55;2.58;;;16.10;99.90;;;;;;5015255;28;20041;-84
2023/07/01 04:06:58;;;;;;;10.90;2.33;;;16.00;99.90;;;;;;5011190;28;20088;-84
2023/07/01 04:09:23;;;;;;;2.17;1.95;;;16.00;99.90;;;;;;5013979;28;20492;-84
2023/07/01 04:11:49;;;;;;;4.80;2.17;;;16.00;99.90;;;;;;5008115;28;20033;-84
2023/07/01 04:14:15;;;;;;;4.65;2.38;;;16.00;99.90;;;;;;4993146;28;20034;-84
2023/07/01 04:16:44;;;;;;;4.68;2.63;;;16.00;99.90;;;;;;4992190;28;20907;-84
2023/07/01 04:19:11;;;;;;;5.90;2.45;;;16.00;99.90;;;;;;5016362;28;20075;-84
2023/07/01 04:21:36;;;;;;;4.03;2.60;;;16.00;99.90;;;;;;5014306;28;20037;-83
2023/07/01 04:24:04;;;;;;;4.97;2.50;;;16.00;99.90;;;;;;5015661;28;20053;-83
2023/07/01 04:26:30;;;;;;;4.93;2.80;;;16.10;99.90;;;;;;5008762;28;20050;-85
2023/07/01 04:28:56;;;;;;;3.97;2.28;;;16.10;99.90;;;;;;5014020;28;20052;-84
2023/07/01 04:31:23;;;;;;;3.80;2.38;;;16.10;99.90;;;;;;5012601;28;20412;-85
2023/07/01 04:33:48;;;;;;;5.00;2.90;;;16.10;99.90;;;;;;5013453;28;20029;-84
2023/07/01 04:36:14;;;;;;;7.03;2.75;;;16.10;99.90;;;;;;5014628;28;20041;-84
2023/07/01 04:38:39;;;;;;;4.85;2.55;;;16.20;99.90;;;;;;5013232;28;20038;-84
2023/07/01 04:41:08;;;;;;;6.47;2.42;;;16.20;99.90;;;;;;5014710;28;20037;-85
2023/07/01 04:43:35;;;;;;;5.50;2.42;;;16.20;99.90;;;;;;5007047;28;20431;-85
2023/07/01 04:46:00;;;;;;;7.75;3.05;;;16.30;99.90;;;;;;4995594;28;20161;-85
2023/07/01 04:48:26;;;;;;;4.55;2.50;;;16.30;99.90;;;;;;5007042;28;20046;-85
2023/07/01 04:50:53;;;;;;;7.30;2.35;;;16.20;99.90;;;;;;4988320;28;20042;-85
2023/07/01 04:53:19;;;;;;;4.43;2.63;;;16.50;99.90;;;;;;5007904;28;20065;-84
2023/07/01 04:55:45;;;;;;;6.78;2.35;;;16.30;99.90;;;;;;5015225;28;20068;-86
2023/07/01 04:58:13;;;;;;;6.65;3.08;;;16.30;99.90;;;;;;4994540;28;20038;-85
2023/07/01 05:00:39;;;;;;;3.85;2.72;;;16.20;99.90;;;;;;4994471;28;20034;-84
2023/07/01 05:03:05;;;;;;;3.58;2.45;;;16.20;99.90;;;;;;4991872;28;20042;-84
2023/07/01 05:05:31;;;;;;;6.72;2.50;;;16.20;99.90;;;;;;4996416;28;20045;-84
2023/07/01 05:07:57;;;;;;;8.32;2.80;;;16.20;99.90;;;;;;4998306;28;20442;-84
2023/07/01 05:10:23;;;;;;;6.75;3.00;;;16.40;99.90;;;;;;4973577;28;20034;-84
2023/07/01 05:12:49;;;;;;;7.45;2.45;;;16.30;99.90;;;;;;5001308;28;20029;-84
2023/07/01 05:15:16;;;;;;;4.80;2.30;;;16.50;99.90;;;;;;5011243;28;20034;-84
2023/07/01 05:17:42;;;;;;;7.72;2.92;;;16.40;99.90;;;;;;5012755;28;20379;-83
2023/07/01 05:20:08;;;;;;;8.10;2.63;;;16.40;99.90;;;;;;5015472;28;20146;-83
2023/07/01 05:22:34;;;;;;;5.78;2.47;;;16.40;99.90;;;;;;5005592;28;20134;-83
2023/07/01 05:25:00;;;;;;;6.65;2.63;;;16.30;99.90;;;;;;5001448;28;20073;-85
2023/07/01 05:27:25;;;;;;;4.50;2.30;;;16.30;99.90;;;;;;5012448;28;20483;-84
2023/07/01 05:29:51;;;;;;;7.72;2.70;;;16.40;99.90;;;;;;5009108;28;20076;-84
2023/07/01 05:32:17;;;;;;;3.70;2.40;;;16.40;99.90;;;;;;5002179;28;20120;-83
2023/07/01 05:34:43;;;;;;;5.78;2.60;;;16.40;99.90;;;;;;5011210;28;20052;-84
2023/07/01 05:37:08;;;;;;;4.18;2.63;;;16.50;99.90;;;;;;5006216;28;20045;-84
2023/07/01 05:39:34;;;;;;;4.88;2.60;;;16.50;99.90;;;;;;5011715;28;20048;-83
2023/07/01 05:42:00;;;;;;;3.60;2.65;;;16.50;99.90;;;;;;5015899;28;20048;-84
2023/07/01 05:44:26;;;;;;;3.05;2.20;;;16.60;99.90;;;;;;5009924;28;20042;-86
2023/07/01 05:46:52;;;;;;;3.92;2.80;;;16.50;99.90;;;;;;5006900;28;20113;-84
2023/07/01 05:49:18;;;;;;;5.78;2.30;;;16.50;99.90;;;;;;5007071;28;20034;-83
2023/07/01 05:51:44;;;;;;;5.18;2.67;;;16.60;99.90;;;;;;5010199;28;20144;-83
2023/07/01 05:54:10;;;;;;;7.65;2.45;;;16.70;99.90;;;;;;4995213;28;20424;-83
2023/07/01 05:56:36;;;;;;;5.88;2.50;;;16.60;99.90;;;;;;5009382;28;20042;-84
2023/07/01 05:59:02;;;;;;;6.03;2.45;;;16.70;99.90;;;;;;5013887;28;20037;-82
2023/07/01 06:01:29;;;;;;;7.47;2.88;;;16.70;99.90;;;;;;5007709;28;20114;-83
2023/07/01 06:03:54;;;;;;;5.03;3.15;;;16.70;99.90;;;;;;5005422;28;20042;-83
2023/07/01 06:06:20;;;;;;;6.50;3.03;;;16.70;99.90;;;;;;5004004;28;20037;-83
2023/07/01 06:08:46;;;;;;;4.43;2.83;;;16.70;99.90;;;;;;5011829;28;20042;-83
2023/07/01 06:11:12;;;;;;;7.35;3.40;;;16.60;99.90;;;;;;5003180;28;20056;-82
2023/07/01 06:13:38;;;;;;;4.43;2.65;;;16.70;99.90;;;;;;5005892;28;20243;-82
2023/07/01 06:16:04;;;;;;;6.72;2.80;;;16.70;99.90;;;;;;5010461;28;20038;-83
2023/07/01 06:18:29;;;;;;;3.60;2.50;;;16.70;99.90;;;;;;4998883;28;20049;-83
2023/07/01 06:20:56;;;;;;;5.55;2.88;;;16.70;99.90;;;;;;4999769;28;20041;-82
2023/07/01 06:23:25;;;;;;;4.97;2.85;;;16.70;99.90;;;;;;5005525;28;20064;-85
2023/07/01 06:25:51;;;;;;;9.07;3.72;;;16.70;99.90;;;;;;4987790;28;20038;-82
2023/07/01 06:28:16;;;;;;;4.15;3.13;;;16.70;99.90;;;;;;5005949;28;20517;-83
2023/07/01 06:30:42;;;;;;;9.00;4.20;;;16.80;99.90;;;;;;5005960;28;20042;-84
2023/07/01 06:33:08;;;;;;;4.32;3.33;;;16.80;99.90;;;;;;5004398;28;20231;-81
2023/07/01 06:35:34;;;;;;;6.18;3.33;;;16.70;99.90;;;;;;5008129;28;20045;-83
2023/07/01 06:38:00;;;;;;;8.07;5.32;;;16.70;99.90;;;;;;5006621;28;20042;-82
2023/07/01 06:40:25;;;;;;;4.93;3.85;;;16.80;99.90;;;;;;5005425;28;20125;-82
2023/07/01 06:42:51;;;;;;;7.07;3.83;;;16.80;99.90;;;;;;4999998;28;20401;-83
2023/07/01 06:45:54;;;;;;;9.50;3.80;;;16.70;99.90;;;;;;5003225;28;20036;-85
2023/07/01 06:48:20;;;;;;;4.55;3.60;;;16.80;99.90;;;;;;5006358;28;20044;-85
2023/07/01 06:50:46;;;;;;;6.00;3.85;;;16.70;99.90;;;;;;5003509;28;20042;-85
2023/07/01 06:53:11;;;;;;;6.80;3.72;;;16.60;99.90;;;;;;5005644;28;20073;-86
2023/07/01 06:55:37;;;;;;;6.22;3.42;;;16.60;99.90;;;;;;5001637;28;20042;-85
2023/07/01 06:58:02;;;;;;;3.97;3.50;;;16.70;99.90;;;;;;5002563;28;20042;-83
2023/07/01 07:00:29;;;;;;;4.72;3.83;;;16.70;99.90;;;;;;5005106;28;20046;-81
2023/07/01 07:02:55;;;;;;;5.45;3.55;;;16.70;99.90;;;;;;5003389;28;20397;-83
2023/07/01 07:05:20;;;;;;;4.68;4.00;;;16.70;99.90;;;;;;5004360;28;20072;-79
2023/07/01 07:07:46;;;;;;;5.15;4.15;;;16.80;99.90;;;;;;5006312;28;20042;-76
2023/07/01 07:10:11;;;;;;;5.75;3.67;;;16.80;99.90;;;;;;5012910;28;20575;-78
2023/07/01 07:12:37;;;;;;;6.50;4.18;;;16.90;99.90;;;;;;5012914;28;20030;-78
2023/07/01 07:15:03;;;;;;;4.28;3.88;;;16.80;99.90;;;;;;5015723;28;20037;-80
2023/07/01 07:17:28;;;;;;;4.53;3.42;;;16.80;99.90;;;;;;5011170;28;20105;-79
2023/07/01 07:19:54;;;;;;;6.05;3.20;;;16.80;99.90;;;;;;5012151;28;20042;-78
2023/07/01 07:22:20;;;;;;;4.43;3.70;;;16.90;99.90;;;;;;5012241;28;20740;-79
2023/07/01 07:24:45;;;;;;;7.80;4.00;;;16.90;99.90;;;;;;5015510;28;20064;-80
2023/07/01 07:27:11;;;;;;;5.40;3.75;;;16.90;99.90;;;;;;5011706;28;20078;-78
2023/07/01 07:29:37;;;;;;;6.22;3.80;;;16.90;99.90;;;;;;5017055;28;20045;-79
2023/07/01 07:32:03;;;;;;;3.60;3.30;;;16.90;99.90;;;;;;5020486;28;20056;-80
2023/07/01 07:34:28;;;;;;;3.70;3.40;;;16.90;99.90;;;;;;5008230;28;20038;-80
2023/07/01 07:36:54;;;;;;;4.45;3.28;;;16.90;99.90;;;;;;5012507;28;20112;-78
2023/07/01 07:39:20;;;;;;;6.32;3.60;;;17.00;99.90;;;;;;5010078;28;20042;-79
2023/07/01 07:41:45;;;;;;;4.82;3.58;;;17.00;99.90;;;;;;5014342;28;20095;-79
2023/07/01 07:44:12;;;;;;;5.82;3.97;;;17.00;99.90;;;;;;4984574;28;20444;-80
2023/07/01 07:46:38;;;;;;;6.43;4.18;;;17.00;99.90;;;;;;5009334;28;20040;-79
2023/07/01 07:49:04;;;;;;;5.13;4.63;;;17.10;99.90;;;;;;5008288;28;20064;-78
2023/07/01 07:51:31;;;;;;;5.07;4.07;;;17.10;99.90;;;;;;5016228;28;20044;-78
2023/07/01 07:53:56;;;;;;;5.97;4.45;;;17.10;99.90;;;;;;5011177;28;20092;-80
2023/07/01 07:56:22;;;;;;;4.72;4.28;;;17.20;99.90;;;;;;5011913;28;20554;-78
2023/07/01 07:58:47;;;;;;;4.78;3.83;;;17.20;99.90;;;;;;5018012;28;20548;-78
2023/07/01 08:01:13;;;;;;;6.47;4.43;;;17.20;99.90;;;;;;5010718;28;20049;-80
2023/07/01 08:03:40;;;;;;;5.80;4.70;;;17.20;99.90;;;;;;5013175;28;20481;-79
2023/07/01 08:06:06;;;;;;;6.20;4.50;;;17.30;99.90;;;;;;5010353;28;20088;-80
2023/07/01 08:08:32;;;;;;;4.60;4.18;;;17.30;99.90;;;;;;5021914;28;20681;-79
2023/07/01 08:10:58;;;;;;;4.63;4.22;;;17.40;99.90;;;;;;5011454;28;20072;-80
2023/07/01 08:13:24;;;;;;;4.25;3.97;;;17.40;99.90;;;;;;5011685;28;20037;-78
2023/07/01 08:15:50;;;;;;;7.13;4.30;;;17.40;99.90;;;;;;5011488;28;20828;-78
2023/07/01 08:18:16;;;;;;;4.22;3.83;;;17.40;99.90;;;;;;5010377;28;20687;-80
2023/07/01 08:20:44;;;;;;;5.10;4.70;;;17.40;99.90;;;;;;5011331;28;20033;-80
2023/07/01 08:23:15;;;;;;;4.38;3.85;;;17.60;99.90;;;;;;5009333;28;21904;-82
2023/07/01 08:25:42;;;;;;;4.05;3.75;;;17.50;99.90;;;;;;5011047;28;20040;-78
2023/07/01 08:28:08;;;;;;;4.63;4.22;;;17.50;99.90;;;;;;5006099;28;20054;-79
2023/07/01 08:30:34;;;;;;;8.82;4.60;;;17.60;99.90;;;;;;5009537;28;20046;-78
2023/07/01 08:32:59;;;;;;;5.10;3.72;;;17.60;99.90;;;;;;5009971;28;20069;-80
2023/07/01 08:35:25;;;;;;;4.78;4.30;;;17.60;99.90;;;;;;5013960;28;20712;-79
2023/07/01 08:37:51;;;;;;;4.18;3.85;;;17.60;99.90;;;;;;5005489;28;20113;-80
2023/07/01 08:40:16;;;;;;;4.40;4.05;;;17.60;99.90;;;;;;5019653;28;20073;-80
2023/07/01 08:42:59;;;;;;;4.35;4.00;;;17.60;99.90;;;;;;5001564;28;20048;-80
2023/07/01 08:45:25;;;;;;;4.45;3.72;;;17.60;99.90;;;;;;5016903;28;20046;-80
2023/07/01 08:47:53;;;;;;;3.78;3.47;;;17.60;99.90;;;;;;5007775;28;20046;-81
2023/07/01 08:50:19;;;;;;;4.13;3.80;;;17.70;99.90;;;;;;5016758;28;20119;-81
2023/07/01 08:52:51;;;;;;;4.20;3.90;;;17.70;99.90;;;;;;5015525;28;20037;-80
2023/07/01 08:55:17;;;;;;;4.38;3.78;;;17.80;99.90;;;;;;5012451;28;20029;-80
2023/07/01 08:57:42;;;;;;;3.85;3.55;;;17.90;99.90;;;;;;5014796;28;20652;-79
2023/07/01 09:00:12;;;;;;;3.83;3.53;;;17.90;99.90;;;;;;5010036;28;20046;-80
2023/07/01 09:02:38;;;;;;;3.78;3.42;;;17.90;99.90;;;;;;5019660;28;20042;-80
2023/07/01 09:05:04;;;;;;;4.57;3.83;;;18.00;99.90;;;;;;5019278;28;20381;-80
2023/07/01 09:07:30;;;;;;;4.03;3.70;;;18.00;99.90;;;;;;5017362;28;20045;-80
2023/07/01 09:09:56;;;;;;;3.95;3.65;;;18.10;99.90;;;;;;5016073;28;20045;-79
2023/07/01 09:12:29;;;;;;;3.63;3.33;;;18.10;99.90;;;;;;5013060;28;20042;-79
2023/07/01 09:15:06;;;;;;;3.97;3.63;;;18.10;99.90;;;;;;5015590;28;20048;-81
2023/07/01 09:17:39;;;;;;;4.72;3.88;;;18.10;99.90;;;;;;5007153;28;20042;-78
2023/07/01 09:20:14;;;;;;;4.07;3.88;;;18.10;99.90;;;;;;5003935;28;20053;-80
2023/07/01 09:22:43;;;;;;;4.03;3.83;;;18.20;99.90;;;;;;5006693;28;20119;-81
2023/07/01 09:25:09;;;;;;;5.35;4.40;;;18.30;99.90;;;;;;4992310;28;20057;-79
2023/07/01 09:27:47;;;;;;;4.75;3.88;;;18.30;99.90;;;;;;5010050;28;20046;-79
2023/07/01 09:30:25;;;;;;;3.72;3.40;;;18.40;99.90;;;;;;5014050;28;20521;-80
2023/07/01 09:32:51;;;;;;;3.70;3.30;;;18.40;99.90;;;;;;4994453;28;20045;-80
2023/07/01 09:35:17;;;;;;;3.90;3.53;;;18.40;99.90;;;;;;5020908;28;20118;-79
2023/07/01 09:37:43;;;;;;;3.45;3.15;;;18.40;99.90;;;;;;5013021;28;20125;-81
2023/07/01 09:40:21;;;;;;;3.50;3.30;;;18.40;99.90;;;;;;5014332;28;20041;-80
2023/07/01 09:42:55;;;;;;;4.82;2.88;;;18.40;99.90;;;;;;5016332;28;20045;-79
2023/07/01 09:45:21;;;;;;;4.47;3.45;;;18.40;99.90;;;;;;5013039;28;20179;-79
2023/07/01 09:47:52;;;;;;;3.80;3.50;;;18.40;99.90;;;;;;5012603;28;20046;-81
2023/07/01 09:50:23;;;;;;;8.30;3.47;;;18.40;99.90;;;;;;5006769;28;20497;-84
2023/07/01 09:52:50;;;;;;;4.03;3.58;;;18.50;99.90;;;;;;4994612;28;20400;-80
2023/07/01 09:55:17;;;;;;;3.78;3.58;;;18.50;99.90;;;;;;5013385;28;20045;-82
2023/07/01 09:57:42;;;;;;;3.72;3.45;;;18.50;99.90;;;;;;5014407;28;20682;-82
2023/07/01 10:00:15;;;;;;;3.95;3.65;;;18.40;99.90;;;;;;5014491;28;20048;-82
2023/07/01 10:02:43;;;;;;;4.15;3.88;;;18.50;99.90;;;;;;5011169;28;20046;-80
2023/07/01 10:05:09;;;;;;;4.13;3.92;;;18.50;99.90;;;;;;5010787;28;20062;-81
2023/07/01 10:07:35;;;;;;;4.57;4.28;;;18.50;99.90;;;;;;5010087;28;20042;-79
2023/07/01 10:10:21;;;;;;;4.25;3.95;;;18.50;99.90;;;;;;5013861;28;20038;-81
2023/07/01 10:12:49;;;;;;;4.70;4.35;;;18.50;99.90;;;;;;5008779;28;20040;-82
2023/07/01 10:15:24;;;;;;;4.80;4.50;;;18.60;99.90;;;;;;5013857;28;20446;-80
2023/07/01 10:17:51;;;;;;;;;;;18.60;99.90;;;;;;5010888;28;20120;-80
2023/07/01 10:20:30;;;;;;;4.63;4.22;;;18.60;99.90;;;;;;5010993;28;19929;-81
2023/07/01 10:22:58;;;;;;;5.32;4.95;;;18.60;99.90;;;;;;5015461;28;20045;-79
2023/07/01 10:25:39;;;;;;;4.47;4.18;;;18.70;99.90;;;;;;5013932;28;20548;-79
2023/07/01 10:28:15;;;;;;;4.00;3.75;;;18.80;99.90;;;;;;5015947;28;20080;-80
2023/07/01 10:30:46;;;;;;;4.80;4.40;;;18.80;99.90;;;;;;5012982;28;20053;-81
2023/07/01 10:33:30;;;;;;;4.15;3.90;;;19.00;99.90;;;;;;5013712;28;20082;-79
2023/07/01 10:36:10;;;;;;;5.07;4.60;;;19.00;99.90;;;;;;5011267;28;20041;-79
2023/07/01 10:38:37;;;;;;;4.75;4.45;;;19.20;99.90;;;;;;5013679;28;20052;-81
2023/07/01 10:41:03;;;;;;;4.80;4.50;;;19.20;99.90;;;;;;5014844;28;20053;-80
2023/07/01 10:43:39;;;;;;;4.95;4.65;;;19.30;99.90;;;;;;5021309;28;20049;-80
2023/07/01 10:46:31;;;;;;;5.28;4.88;;;19.30;99.90;;;;;;5008972;28;20042;-79
2023/07/01 10:49:02;;;;;;;4.85;4.55;;;19.30;99.90;;;;;;5013229;28;20120;-80
2023/07/01 10:51:30;;;;;;;5.15;4.75;;;19.30;99.90;;;;;;5014583;28;20037;-80
2023/07/01 10:53:58;;;;;;;5.15;4.60;;;19.30;99.90;;;;;;5013869;28;20033;-81
2023/07/01 10:56:25;;;;;;;4.40;4.00;;;19.20;99.90;;;;;;5016151;28;20415;-82
2023/07/01 10:59:22;;;;;;;6.00;4.32;;;19.10;99.90;;;;;;5023332;28;20041;-81
2023/07/01 11:01:50;;;;;;;4.65;4.35;;;19.20;99.90;;;;;;5014838;28;20480;-81
2023/07/01 11:04:17;;;;;;;5.00;4.70;;;19.20;99.90;;;;;;5013748;28;20056;-81
2023/07/01 11:06:54;;;;;;;6.47;4.38;;;19.30;99.90;;;;;;5019391;28;20041;-81
2023/07/01 11:09:32;;;;;;;5.22;4.82;;;19.20;99.90;;;;;;5014048;28;20037;-80
2023/07/01 11:12:03;;;;;;;5.45;4.85;;;19.20;99.90;;;;;;5017519;28;20091;-81
2023/07/01 11:14:41;;;;;;;5.35;4.80;;;19.20;99.90;;;;;;5020419;28;20045;-82
2023/07/01 11:17:11;;;;;;;4.55;4.15;;;19.20;99.90;;;;;;5009853;28;20033;-80
2023/07/01 11:19:37;;;;;;;6.07;4.85;;;19.20;99.90;;;;;;5020234;28;20050;-80
2023/07/01 11:22:04;;;;;;;6.60;4.55;;;19.20;99.90;;;;;;5021127;28;20038;-81
2023/07/01 11:24:30;;;;;;;3.67;3.47;;;19.20;99.90;;;;;;5011466;28;20034;-82
2023/07/01 11:27:08;;;;;;;4.78;3.38;;;19.20;99.90;;;;;;5011645;28;20042;-82
2023/07/01 11:29:37;;;;;;;2.80;2.47;;;19.20;99.90;;;;;;5014139;28;20414;-82
2023/07/01 11:32:07;;;;;;;2.70;2.50;;;19.30;99.90;;;;;;5014618;28;20095;-83
2023/07/01 11:34:33;;;;;;;2.30;2.20;;;19.40;99.90;;;;;;5013979;28;20052;-82
2023/07/01 11:36:59;;;;;;;2.58;2.38;;;19.60;99.90;;;;;;5011599;28;20041;-81
2023/07/01 11:40:12;;;;;;;2.15;1.92;;;19.70;99.90;;;;;;5016590;28;20054;-83
2023/07/01 11:42:38;;;;;;;2.47;2.28;;;19.70;99.90;;;;;;5012628;28;20080;-81
2023/07/01 11:45:06;;;;;;;3.67;2.55;;;19.70;99.90;;;;;;5012012;28;20042;-81
2023/07/01 11:47:32;;;;;;;4.22;2.50;;;19.70;99.90;;;;;;5007657;28;20337;-82
2023/07/01 11:50:07;;;;;;;2.28;1.88;;;19.70;99.90;;;;;;5010599;28;20137;-82
2023/07/01 11:52:32;;;;;;;5.85;2.38;;;19.70;99.90;;;;;;5011999;28;20751;-82
2023/07/01 11:54:58;;;;;;;1.45;1.35;;;19.70;99.90;;;;;;5004544;28;20041;-82
2023/07/01 11:57:24;;;;;;;1.40;1.13;;;19.70;99.90;;;;;;5007511;28;20033;-81
2023/07/01 12:00:00;;;;;;;1.20;1.10;;;19.80;99.90;;;;;;5011357;28;20052;-81
2023/07/01 12:02:27;;;;;;;2.85;0.85;;;19.90;99.90;;;;;;5006852;28;20128;-81
2023/07/01 12:04:52;;;;;;;1.05;0.90;;;20.10;99.90;;;;;;5012398;28;20077;-81
2023/07/01 12:07:18;;;;;;;3.15;1.42;;;20.20;99.90;;;;;;5012669;28;20037;-81
2023/07/01 12:09:45;;;;;;;1.35;1.25;;;20.30;99.90;;;;;;5007040;28;20080;-81
2023/07/01 12:12:14;;;;;;;1.90;1.40;;;20.40;99.90;;;;;;5005413;28;20092;-81
2023/07/01 12:14:40;;;;;;;2.00;1.80;;;20.40;99.90;;;;;;5012851;28;20111;-80
2023/07/01 12:17:06;;;;;;;2.17;1.92;;;20.40;99.90;;;;;;5014853;28;20026;-82
2023/07/01 12:19:32;;;;;;;2.85;2.10;;;20.40;99.90;;;;;;5015071;28;20050;-82
2023/07/01 12:21:59;;;;;;;3.95;2.17;;;20.40;99.90;;;;;;5012616;28;20038;-81
2023/07/01 12:24:31;;;;;;;3.95;2.13;;;20.40;99.90;;;;;;5016801;28;20076;-82
2023/07/01 12:26:59;;;;;;;2.25;1.80;;;20.40;99.90;;;;;;5008543;28;20096;-80
2023/07/01 12:29:25;;;;;;;1.30;1.20;;;20.30;99.90;;;;;;5020922;28;20069;-81
2023/07/01 12:31:53;;;;;;;1.88;1.67;;;20.30;99.90;;;;;;5016172;28;20530;-80
2023/07/01 12:34:19;;;;;;;2.08;1.50;;;20.40;99.90;;;;;;5014343;28;20049;-81
2023/07/01 12:36:45;;;;;;;4.03;1.90;;;20.40;99.90;;;;;;5012511;28;20051;-80
2023/07/01 12:39:12;;;;;;;2.78;2.45;;;20.40;99.90;;;;;;5015045;28;20045;-81
2023/07/01 12:41:38;;;;;;;4.10;3.70;;;20.50;99.90;;;;;;5019461;28;20123;-80
2023/07/01 12:44:08;;;;;;;3.83;2.88;;;20.60;99.90;;;;;;5016910;28;20037;-81
2023/07/01 12:46:35;;;;;;;4.25;2.45;;;20.50;99.90;;;;;;5014850;28;20834;-80
2023/07/01 12:49:03;;;;;;;5.38;2.75;;;20.60;99.90;;;;;;5006411;28;20092;-80